createdAt,value
2023-01-02T00:03:36.111Z,8.53
2023-01-02T00:08:41.350Z,8.63
2023-01-02T00:13:46.381Z,8.73
2023-01-02T00:18:54.401Z,8.03
2023-01-02T00:23:59.346Z,7.30
2023-01-02T00:29:05.280Z,7.70
2023-01-02T00:34:13.115Z,7.67
2023-01-02T00:39:18.161Z,8.00
2023-01-02T00:44:23.927Z,7.87
2023-01-02T00:49:33.284Z,7.23
2023-01-02T00:54:38.203Z,7.10
2023-01-02T00:59:43.101Z,7.10
2023-01-02T01:04:50.923Z,5.97
2023-01-02T01:09:55.758Z,6.60
2023-01-02T01:15:00.728Z,6.38
2023-01-02T01:20:09.746Z,6.57
2023-01-02T01:25:14.852Z,6.30
2023-01-02T01:30:19.796Z,6.83
2023-01-02T01:35:27.507Z,7.20
2023-01-02T01:40:39.618Z,7.53
2023-01-02T01:45:46.463Z,6.50
2023-01-02T01:50:53.977Z,6.37
2023-01-02T01:56:06.838Z,7.07
2023-01-02T02:01:13.927Z,6.77
2023-01-02T02:06:23.144Z,6.97
2023-01-02T02:11:28.428Z,7.90
2023-01-02T02:16:43.862Z,8.03
2023-01-02T02:22:17.696Z,7.47
2023-01-02T02:27:46.458Z,7.90
2023-01-02T02:33:18.286Z,8.80
2023-01-02T02:38:36.335Z,9.83
2023-01-02T02:43:49.869Z,9.10
2023-01-02T02:49:03.389Z,8.90
2023-01-02T02:54:14.010Z,10.03
2023-01-02T02:59:19.658Z,8.97
2023-01-02T03:04:29.104Z,9.23
2023-01-02T03:09:41.824Z,9.53
2023-01-02T03:14:54.927Z,11.03
2023-01-02T03:20:10.076Z,9.27
2023-01-02T03:25:18.143Z,9.47
2023-01-02T03:30:25.618Z,9.80
2023-01-02T03:35:39.346Z,10.30
2023-01-02T03:40:48.841Z,9.83
2023-01-02T03:46:04.457Z,9.57
2023-01-02T03:51:13.424Z,9.57
2023-01-02T03:56:26.183Z,9.90
2023-01-02T04:01:47.044Z,10.00
2023-01-02T04:07:02.739Z,9.40
2023-01-02T04:12:16.543Z,9.40
2023-01-02T04:17:25.162Z,10.60
2023-01-02T04:22:38.401Z,10.13
2023-01-02T04:27:49.359Z,9.63
2023-01-02T04:32:55.624Z,9.93
2023-01-02T04:38:10.442Z,10.03
2023-01-02T04:43:25.347Z,9.10
2023-01-02T04:48:31.642Z,9.13
2023-01-02T04:53:39.486Z,9.93
2023-01-02T04:58:45.007Z,9.57
2023-01-02T05:03:54.134Z,9.53
2023-01-02T05:09:02.001Z,9.37
2023-01-02T05:14:07.823Z,9.17
2023-01-02T05:19:13.021Z,8.93
2023-01-02T05:24:20.707Z,9.43
2023-01-02T05:29:26.444Z,9.47
2023-01-02T05:34:31.581Z,9.03
2023-01-02T05:39:39.158Z,9.63
2023-01-02T05:44:44.094Z,9.23
2023-01-02T05:49:50.299Z,8.63
2023-01-02T05:54:58.221Z,8.63
2023-01-02T06:00:04.432Z,8.43
2023-01-02T06:05:17.841Z,8.13
2023-01-02T06:10:25.446Z,9.70
2023-01-02T06:15:35.062Z,9.30
2023-01-02T06:20:40.802Z,8.40
2023-01-02T06:25:49.954Z,8.10
2023-01-02T06:30:56.152Z,7.87
2023-01-02T06:36:05.353Z,8.40
2023-01-02T06:41:17.432Z,8.33
2023-01-02T06:46:26.788Z,9.80
2023-01-02T06:51:34.678Z,9.07
2023-01-02T06:56:47.469Z,9.03
2023-01-02T07:02:01.629Z,8.63
2023-01-02T07:07:11.892Z,9.63
2023-01-02T07:12:21.958Z,9.43
2023-01-02T07:17:27.342Z,9.70
2023-01-02T07:22:32.304Z,9.83
2023-01-02T07:27:39.911Z,9.23
2023-01-02T07:32:45.620Z,8.47
2023-01-02T07:37:52.220Z,9.37
2023-01-02T07:43:00.007Z,9.17
2023-01-02T07:48:06.069Z,9.50
2023-01-02T07:53:11.210Z,9.23
2023-01-02T07:58:32.135Z,9.23
2023-01-02T08:03:39.382Z,9.37
2023-01-02T08:08:45.928Z,8.73
2023-01-02T08:13:54.587Z,8.97
2023-01-02T08:18:59.657Z,9.73
2023-01-02T08:24:10.602Z,8.97
2023-01-02T08:29:31.091Z,8.00
2023-01-02T08:34:38.431Z,8.93
2023-01-02T08:39:45.652Z,8.87
2023-01-02T08:44:55.029Z,8.17
2023-01-02T08:50:00.147Z,8.87
2023-01-02T08:55:06.137Z,8.37
2023-01-02T09:00:17.532Z,7.60
2023-01-02T09:05:25.031Z,7.97
2023-01-02T09:10:36.115Z,7.43
2023-01-02T09:15:47.366Z,7.47
2023-01-02T09:20:54.431Z,7.47
2023-01-02T09:26:03.166Z,7.40
2023-01-02T09:31:13.331Z,8.10
2023-01-02T09:36:22.537Z,7.23
2023-01-02T09:41:34.913Z,7.57
2023-01-02T09:46:55.648Z,7.43
2023-01-02T09:52:00.969Z,7.20
2023-01-02T09:57:20.086Z,7.30
2023-01-02T10:02:42.545Z,6.73
2023-01-02T10:07:55.969Z,7.67
2023-01-02T10:13:09.144Z,7.90
2023-01-02T10:18:23.111Z,7.17
2023-01-02T10:23:30.999Z,6.63
2023-01-02T10:28:47.536Z,7.50
2023-01-02T10:34:03.205Z,7.53
2023-01-02T10:39:16.426Z,7.63
2023-01-02T10:44:27.780Z,7.30
2023-01-02T10:49:37.937Z,7.40
2023-01-02T10:54:58.978Z,6.70
2023-01-02T11:00:06.166Z,7.03
2023-01-02T11:05:23.441Z,7.47
2023-01-02T11:10:31.103Z,8.20
2023-01-02T11:15:37.230Z,8.07
2023-01-02T11:20:52.376Z,7.47
2023-01-02T11:25:57.674Z,7.60
2023-01-02T11:31:14.844Z,7.67
2023-01-02T11:36:22.919Z,8.43
2023-01-02T11:41:52.135Z,7.20
2023-01-02T11:46:58.642Z,6.97
2023-01-02T11:52:08.904Z,7.60
2023-01-02T11:57:18.899Z,6.23
2023-01-02T12:02:30.066Z,7.20
2023-01-02T12:07:46.208Z,5.97
2023-01-02T12:13:03.380Z,6.77
2023-01-02T12:18:22.109Z,7.20
2023-01-02T12:23:39.804Z,6.77
2023-01-02T12:29:07.335Z,6.50
2023-01-02T12:34:25.492Z,6.57
2023-01-02T12:39:55.265Z,7.10
2023-01-02T12:45:03.008Z,7.30
2023-01-02T12:50:34.060Z,6.70
2023-01-02T12:55:52.789Z,7.27
2023-01-02T13:01:15.792Z,6.97
2023-01-02T13:06:44.496Z,6.27
2023-01-02T13:12:02.973Z,6.60
2023-01-02T13:17:27.662Z,7.23
2023-01-02T13:22:39.935Z,6.70
2023-01-02T13:27:50.164Z,6.43
2023-01-02T13:32:55.351Z,6.37
2023-01-02T13:38:05.407Z,6.47
2023-01-02T13:43:20.459Z,6.40
2023-01-02T13:48:35.103Z,6.77
2023-01-02T13:53:43.168Z,6.97
2023-01-02T13:58:55.334Z,6.27
2023-01-02T14:04:32.493Z,6.70
2023-01-02T14:10:13.616Z,6.90
2023-01-02T14:15:26.260Z,6.93
2023-01-02T14:20:35.740Z,6.43
2023-01-02T14:25:50.772Z,6.87
2023-01-02T14:31:03.241Z,6.37
2023-01-02T14:36:13.802Z,6.60
2023-01-02T14:42:06.692Z,6.30
2023-01-02T14:47:20.855Z,6.90
2023-01-02T14:52:30.798Z,7.13
2023-01-02T14:57:40.175Z,6.20
2023-01-02T15:02:50.981Z,6.63
2023-01-02T15:08:00.154Z,7.40
2023-01-02T15:13:08.126Z,7.67
2023-01-02T15:18:20.653Z,7.40
2023-01-02T15:23:28.307Z,7.67
2023-01-02T15:28:35.988Z,7.17
2023-01-02T15:33:43.628Z,8.70
2023-01-02T15:38:50.442Z,7.10
2023-01-02T15:44:11.172Z,7.67
2023-01-02T15:49:20.292Z,7.17
2023-01-02T15:54:27.546Z,7.53
2023-01-02T15:59:38.948Z,7.13
2023-01-02T16:04:46.567Z,3.80
2023-01-02T16:09:59.994Z,3.80
2023-01-02T16:15:14.794Z,3.47
2023-01-02T16:20:27.686Z,3.20
2023-01-02T16:25:34.183Z,3.10
2023-01-02T16:30:42.845Z,3.57
2023-01-02T16:36:00.211Z,3.50
2023-01-02T16:41:12.591Z,4.40
2023-01-02T16:46:19.072Z,3.27
2023-01-02T16:51:27.074Z,2.87
2023-01-02T16:56:33.046Z,3.17
2023-01-02T17:01:38.232Z,3.07
2023-01-02T17:06:46.347Z,2.90
2023-01-02T17:12:03.155Z,3.00
2023-01-02T17:17:09.645Z,3.53
2023-01-02T17:22:17.328Z,4.10
2023-01-02T17:27:22.854Z,3.50
2023-01-02T17:32:28.630Z,3.20
2023-01-02T17:37:37.541Z,3.53
2023-01-02T17:42:44.175Z,4.00
2023-01-02T17:48:02.215Z,3.10
2023-01-02T17:53:11.998Z,3.30
2023-01-02T17:58:19.057Z,4.10
2023-01-02T18:03:24.170Z,3.30
2023-01-02T18:08:34.650Z,2.87
2023-01-02T18:13:44.307Z,2.97
2023-01-02T18:18:49.648Z,2.80
2023-01-02T18:24:01.668Z,2.63
2023-01-02T18:29:10.114Z,2.93
2023-01-02T18:34:46.576Z,2.77
2023-01-02T18:39:48.942Z,2.90
2023-01-02T18:44:57.702Z,3.07
2023-01-02T18:50:35.073Z,3.43
2023-01-02T18:55:42.640Z,3.77
2023-01-02T19:00:48.793Z,2.83
2023-01-02T19:05:53.840Z,2.43
2023-01-02T19:11:22.290Z,2.57
2023-01-02T19:16:28.813Z,2.40
2023-01-02T19:21:38.067Z,2.63
2023-01-02T19:26:48.707Z,2.30
2023-01-02T19:32:00.016Z,2.40
2023-01-02T19:37:25.771Z,2.80
2023-01-02T19:42:35.748Z,2.43
2023-01-02T19:47:42.377Z,2.30
2023-01-02T19:52:47.983Z,2.67
2023-01-02T19:57:57.548Z,2.37
2023-01-02T20:03:03.187Z,2.20
2023-01-02T20:08:16.720Z,3.13
2023-01-02T20:13:26.999Z,2.60
2023-01-02T20:18:32.897Z,2.53
2023-01-02T20:23:39.931Z,4.50
2023-01-02T20:28:48.977Z,2.67
2023-01-02T20:33:56.443Z,2.90
2023-01-02T20:39:03.128Z,2.67
2023-01-02T20:44:15.877Z,1.37
2023-01-02T20:49:25.302Z,1.20
2023-01-02T20:54:31.259Z,1.37
2023-01-02T20:59:39.490Z,1.90
2023-01-02T21:04:45.123Z,1.63
2023-01-02T21:09:50.344Z,1.33
2023-01-02T21:14:58.409Z,1.60
2023-01-02T21:20:04.537Z,1.60
2023-01-02T21:25:10.299Z,1.90
2023-01-02T21:30:18.442Z,1.17
2023-01-02T21:35:24.929Z,1.50
2023-01-02T21:40:30.174Z,2.10
2023-01-02T21:45:40.349Z,2.43
2023-01-02T21:50:45.645Z,2.73
2023-01-02T21:55:50.751Z,3.40
2023-01-02T22:00:58.517Z,3.50
2023-01-02T22:06:03.454Z,2.80
2023-01-02T22:11:21.025Z,2.67
2023-01-02T22:16:28.612Z,2.80
2023-01-02T22:21:36.549Z,2.20
2023-01-02T22:26:42.886Z,2.37
2023-01-02T22:31:51.765Z,1.63
2023-01-02T22:36:57.322Z,1.90
2023-01-02T22:42:48.798Z,1.97
2023-01-02T22:47:46.560Z,2.03
2023-01-02T22:52:52.717Z,1.80
2023-01-02T22:57:58.077Z,1.90
2023-01-02T23:03:05.678Z,2.03
2023-01-02T23:08:11.091Z,2.10
2023-01-02T23:13:16.054Z,1.83
2023-01-02T23:18:35.873Z,1.80
2023-01-02T23:23:41.730Z,1.83
2023-01-02T23:34:16.814Z,2.00
2023-01-02T23:39:23.418Z,1.50
2023-01-02T23:44:29.002Z,1.40
2023-01-02T23:49:36.503Z,1.50
2023-01-02T23:54:41.992Z,1.40
2023-01-02T23:59:47.040Z,1.30
